createdAt,value
2022-12-15T00:00:49.379Z,31.92
2022-12-15T00:03:47.775Z,31.86
2022-12-15T00:06:34.705Z,31.89
2022-12-15T00:09:25.183Z,31.93
2022-12-15T00:12:14.360Z,31.91
2022-12-15T00:15:01.388Z,32.07
2022-12-15T00:17:48.305Z,32.12
2022-12-15T00:20:35.315Z,32.20
2022-12-15T00:23:30.748Z,32.16
2022-12-15T00:26:17.540Z,32.18
2022-12-15T00:29:04.145Z,32.21
2022-12-15T00:31:51.004Z,32.27
2022-12-15T00:34:37.473Z,32.29
2022-12-15T00:37:24.374Z,32.30
2022-12-15T00:39:59.420Z,32.26
2022-12-15T00:42:28.919Z,32.34
2022-12-15T00:44:57.506Z,32.20
2022-12-15T00:47:26.079Z,32.24
2022-12-15T00:50:12.688Z,32.23
2022-12-15T00:52:59.705Z,32.30
2022-12-15T00:55:46.616Z,32.33
2022-12-15T00:58:33.852Z,32.30
2022-12-15T01:01:28.474Z,32.30
2022-12-15T01:04:15.929Z,32.26
2022-12-15T01:07:03.692Z,32.24
2022-12-15T01:09:50.815Z,32.27
2022-12-15T01:12:38.094Z,32.20
2022-12-15T01:15:27.313Z,32.29
2022-12-15T01:18:14.217Z,32.16
2022-12-15T01:20:42.693Z,32.25
2022-12-15T01:23:10.868Z,32.08
2022-12-15T01:25:39.825Z,32.17
2022-12-15T01:28:08.650Z,32.12
2022-12-15T01:30:37.032Z,32.19
2022-12-15T01:33:05.346Z,32.19
2022-12-15T01:35:33.484Z,32.21
2022-12-15T01:38:02.165Z,32.23
2022-12-15T01:40:46.036Z,32.20
2022-12-15T01:43:22.437Z,32.26
2022-12-15T01:46:12.312Z,32.20
2022-12-15T01:48:47.618Z,32.21
2022-12-15T01:51:18.569Z,32.25
2022-12-15T01:54:12.541Z,32.25
2022-12-15T01:56:46.531Z,32.26
2022-12-15T01:59:23.305Z,32.28
2022-12-15T02:01:51.726Z,32.27
2022-12-15T02:04:22.928Z,32.31
2022-12-15T02:06:53.041Z,32.22
2022-12-15T02:09:25.625Z,32.23
2022-12-15T02:11:59.619Z,32.36
2022-12-15T02:15:12.049Z,32.31
2022-12-15T02:18:09.168Z,32.37
2022-12-15T02:20:52.430Z,32.39
2022-12-15T02:23:48.262Z,32.35
2022-12-15T02:26:52.702Z,32.36
2022-12-15T02:30:07.543Z,32.54
2022-12-15T02:32:58.467Z,32.48
2022-12-15T02:35:58.086Z,32.40
2022-12-15T02:38:39.138Z,32.39
2022-12-15T02:41:37.044Z,32.47
2022-12-15T02:44:42.354Z,32.50
2022-12-15T02:47:29.373Z,32.30
2022-12-15T02:50:19.052Z,32.53
2022-12-15T02:53:29.150Z,32.48
2022-12-15T02:55:57.382Z,32.52
2022-12-15T02:59:19.725Z,32.54
2022-12-15T03:02:06.165Z,32.53
2022-12-15T03:04:37.276Z,32.52
2022-12-15T03:07:10.055Z,32.49
2022-12-15T03:09:38.485Z,32.45
2022-12-15T03:12:08.056Z,32.48
2022-12-15T03:14:36.418Z,32.53
2022-12-15T03:17:07.360Z,32.53
2022-12-15T03:19:35.380Z,32.59
2022-12-15T03:22:04.532Z,32.56
2022-12-15T03:24:32.622Z,32.52
2022-12-15T03:27:01.078Z,32.47
2022-12-15T03:29:29.561Z,32.43
2022-12-15T03:31:57.729Z,32.54
2022-12-15T03:34:26.423Z,32.57
2022-12-15T03:36:54.704Z,32.61
2022-12-15T03:39:23.181Z,32.69
2022-12-15T03:41:51.659Z,32.60
2022-12-15T03:44:19.833Z,32.56
2022-12-15T03:46:48.316Z,32.56
2022-12-15T03:49:16.337Z,32.55
2022-12-15T03:51:45.278Z,32.58
2022-12-15T03:54:14.278Z,32.61
2022-12-15T03:56:42.838Z,32.58
2022-12-15T03:59:11.045Z,32.63
2022-12-15T04:01:46.247Z,32.52
2022-12-15T04:04:14.610Z,32.49
2022-12-15T04:06:42.943Z,32.63
2022-12-15T04:09:11.203Z,32.70
2022-12-15T04:11:39.377Z,32.67
2022-12-15T04:14:09.404Z,32.69
2022-12-15T04:16:37.690Z,32.63
2022-12-15T04:19:24.386Z,32.80
2022-12-15T04:21:53.168Z,32.71
2022-12-15T04:24:40.365Z,32.75
2022-12-15T04:27:27.155Z,32.67
2022-12-15T04:30:14.060Z,32.72
2022-12-15T04:33:01.107Z,32.72
2022-12-15T04:35:52.756Z,32.75
2022-12-15T04:38:49.893Z,32.69
2022-12-15T04:41:39.933Z,32.62
2022-12-15T04:44:27.723Z,32.70
2022-12-15T04:47:14.436Z,32.58
2022-12-15T04:50:01.096Z,32.64
2022-12-15T04:52:48.362Z,32.71
2022-12-15T04:55:35.378Z,32.76
2022-12-15T04:58:27.839Z,32.61
2022-12-15T05:01:16.944Z,32.63
2022-12-15T05:04:03.890Z,32.50
2022-12-15T05:06:50.761Z,32.41
2022-12-15T05:09:37.679Z,32.44
2022-12-15T05:12:24.540Z,32.53
2022-12-15T05:15:11.349Z,32.28
2022-12-15T05:17:59.173Z,32.33
2022-12-15T05:20:46.102Z,32.29
2022-12-15T05:23:37.756Z,31.72
2022-12-15T05:26:28.015Z,31.62
2022-12-15T05:29:14.751Z,31.58
2022-12-15T05:31:52.326Z,31.60
2022-12-15T05:34:30.482Z,31.88
2022-12-15T05:37:00.552Z,31.85
2022-12-15T05:39:29.553Z,31.99
2022-12-15T05:41:57.984Z,31.86
2022-12-15T05:44:26.761Z,31.76
2022-12-15T05:46:55.028Z,31.59
2022-12-15T05:49:23.513Z,31.46
2022-12-15T05:51:52.971Z,31.59
2022-12-15T05:54:21.454Z,31.84
2022-12-15T05:56:50.253Z,32.17
2022-12-15T05:59:19.494Z,32.27
2022-12-15T06:01:47.806Z,32.17
2022-12-15T06:04:16.596Z,32.32
2022-12-15T06:06:44.809Z,32.13
2022-12-15T06:09:14.864Z,31.61
2022-12-15T06:11:43.979Z,31.52
2022-12-15T06:14:12.168Z,31.51
2022-12-15T06:16:50.359Z,31.56
2022-12-15T06:19:20.319Z,31.56
2022-12-15T06:21:48.906Z,31.45
2022-12-15T06:24:17.257Z,31.61
2022-12-15T06:26:46.459Z,31.69
2022-12-15T06:29:18.728Z,31.79
2022-12-15T06:31:47.073Z,31.92
2022-12-15T06:34:17.268Z,31.93
2022-12-15T06:36:45.937Z,31.94
2022-12-15T06:39:16.163Z,32.03
2022-12-15T06:41:45.281Z,32.11
2022-12-15T06:44:16.024Z,32.03
2022-12-15T06:46:46.228Z,32.12
2022-12-15T06:49:14.988Z,32.16
2022-12-15T06:51:44.232Z,32.20
2022-12-15T06:54:13.162Z,32.27
2022-12-15T06:56:42.380Z,32.28
2022-12-15T06:59:11.807Z,32.36
2022-12-15T07:01:41.701Z,32.33
2022-12-15T07:04:11.332Z,32.32
2022-12-15T07:06:40.427Z,32.61
2022-12-15T07:09:16.136Z,32.57
2022-12-15T07:11:46.310Z,32.71
2022-12-15T07:14:14.429Z,32.78
2022-12-15T07:16:42.773Z,32.89
2022-12-15T07:19:14.573Z,32.96
2022-12-15T07:21:42.949Z,32.99
2022-12-15T07:24:12.964Z,33.18
2022-12-15T07:26:41.958Z,33.14
2022-12-15T07:29:10.641Z,33.12
2022-12-15T07:31:38.957Z,33.15
2022-12-15T07:34:07.398Z,33.02
2022-12-15T07:36:35.759Z,33.01
2022-12-15T07:39:05.327Z,32.87
2022-12-15T07:41:33.766Z,32.89
2022-12-15T07:44:02.671Z,32.98
2022-12-15T07:46:30.987Z,32.99
2022-12-15T07:48:59.617Z,33.01
2022-12-15T07:51:27.898Z,33.08
2022-12-15T07:53:56.172Z,33.10
2022-12-15T07:56:24.651Z,33.15
2022-12-15T07:58:53.233Z,33.02
2022-12-15T08:01:21.715Z,33.10
2022-12-15T08:03:50.226Z,33.01
2022-12-15T08:06:18.420Z,33.00
2022-12-15T08:08:50.704Z,32.89
2022-12-15T08:11:22.913Z,32.85
2022-12-15T08:14:10.382Z,33.09
2022-12-15T08:16:39.998Z,33.10
2022-12-15T08:19:15.317Z,32.94
2022-12-15T08:21:46.767Z,32.80
2022-12-15T08:24:15.736Z,32.84
2022-12-15T08:26:44.492Z,32.59
2022-12-15T08:32:07.542Z,32.68
2022-12-15T08:34:35.871Z,32.58
2022-12-15T08:37:03.961Z,32.75
2022-12-15T08:39:32.174Z,32.65
2022-12-15T08:42:00.456Z,32.55
2022-12-15T08:44:28.671Z,32.58
2022-12-15T08:46:56.900Z,32.76
2022-12-15T08:49:25.821Z,32.68
2022-12-15T08:51:54.017Z,32.80
2022-12-15T08:54:22.185Z,32.60
2022-12-15T08:56:50.372Z,32.72
2022-12-15T08:59:19.554Z,32.62
2022-12-15T09:01:48.153Z,32.56
2022-12-15T09:04:16.944Z,32.54
2022-12-15T09:06:50.259Z,32.56
2022-12-15T09:09:19.555Z,32.53
2022-12-15T09:11:49.041Z,32.40
2022-12-15T09:14:22.787Z,32.50
2022-12-15T09:16:53.869Z,32.46
2022-12-15T09:19:22.056Z,32.59
2022-12-15T09:21:50.329Z,32.42
2022-12-15T09:24:28.783Z,32.44
2022-12-15T09:27:03.373Z,32.48
2022-12-15T09:29:32.449Z,32.35
2022-12-15T09:32:00.645Z,32.42
2022-12-15T09:34:29.010Z,32.32
2022-12-15T09:36:57.105Z,32.35
2022-12-15T09:39:25.425Z,32.32
2022-12-15T09:41:59.498Z,32.33
2022-12-15T09:44:32.135Z,32.47
2022-12-15T09:47:28.702Z,32.24
2022-12-15T09:50:01.811Z,32.28
2022-12-15T09:53:00.582Z,32.29
2022-12-15T09:55:32.848Z,32.16
2022-12-15T10:01:05.960Z,32.13
2022-12-15T10:04:07.789Z,32.14
2022-12-15T10:06:52.893Z,32.21
2022-12-15T10:09:29.729Z,32.02
2022-12-15T10:12:07.201Z,32.04
2022-12-15T10:14:38.087Z,31.85
2022-12-15T10:17:26.528Z,31.98
2022-12-15T10:20:22.984Z,31.89
2022-12-15T10:22:51.538Z,31.90
2022-12-15T10:25:29.667Z,31.82
2022-12-15T10:28:17.096Z,31.60
2022-12-15T10:30:56.425Z,31.77
2022-12-15T10:33:29.169Z,31.77
2022-12-15T10:35:57.706Z,31.75
2022-12-15T10:38:38.007Z,31.94
2022-12-15T10:41:17.813Z,31.90
2022-12-15T10:43:50.251Z,31.90
2022-12-15T10:46:22.800Z,31.80
2022-12-15T10:48:57.110Z,31.65
2022-12-15T10:51:44.090Z,31.60
2022-12-15T10:54:15.939Z,31.51
2022-12-15T10:56:55.085Z,31.58
2022-12-15T10:59:23.155Z,31.62
2022-12-15T11:01:52.417Z,31.62
2022-12-15T11:04:36.447Z,31.48
2022-12-15T11:07:18.192Z,31.54
2022-12-15T11:09:48.640Z,31.71
2022-12-15T11:12:41.540Z,31.56
2022-12-15T11:15:21.816Z,31.44
2022-12-15T11:17:55.405Z,31.07
2022-12-15T11:20:34.564Z,30.97
2022-12-15T11:23:12.179Z,31.12
2022-12-15T11:25:47.157Z,31.19
2022-12-15T11:28:22.749Z,31.22
2022-12-15T11:31:06.275Z,31.09
2022-12-15T11:33:35.287Z,31.07
2022-12-15T11:36:10.197Z,31.01
2022-12-15T11:38:52.865Z,31.08
2022-12-15T11:41:48.462Z,31.10
2022-12-15T11:44:28.491Z,31.21
2022-12-15T11:47:34.556Z,31.13
2022-12-15T11:50:26.785Z,30.95
2022-12-15T11:53:20.360Z,31.03
2022-12-15T11:56:27.440Z,31.13
2022-12-15T11:59:20.910Z,31.23
2022-12-15T12:02:10.562Z,31.20
2022-12-15T12:05:13.928Z,31.27
2022-12-15T12:08:34.321Z,31.33
2022-12-15T12:11:25.641Z,31.21
2022-12-15T12:14:15.956Z,30.98
2022-12-15T12:16:54.591Z,31.02
2022-12-15T12:19:52.585Z,31.21
2022-12-15T12:22:30.323Z,31.09
2022-12-15T12:25:03.094Z,31.06
2022-12-15T12:28:03.675Z,31.09
2022-12-15T12:30:48.707Z,30.89
2022-12-15T12:33:40.610Z,30.93
2022-12-15T12:36:12.499Z,31.02
2022-12-15T12:38:50.742Z,30.96
2022-12-15T12:41:50.086Z,31.07
2022-12-15T12:44:27.365Z,31.17
2022-12-15T12:46:57.368Z,31.13
2022-12-15T12:49:42.622Z,31.19
2022-12-15T12:52:32.220Z,31.04
2022-12-15T12:55:08.026Z,31.04
2022-12-15T12:57:43.462Z,31.13
2022-12-15T13:00:16.545Z,31.13
2022-12-15T13:02:55.987Z,31.23
2022-12-15T13:05:31.815Z,31.29
2022-12-15T13:08:05.967Z,31.17
2022-12-15T13:10:43.105Z,31.32
2022-12-15T13:13:41.965Z,31.39
2022-12-15T13:16:24.412Z,29.71
2022-12-15T13:19:03.681Z,28.76
2022-12-15T13:21:41.854Z,27.84
2022-12-15T13:24:35.690Z,27.92
2022-12-15T13:27:11.461Z,27.87
2022-12-15T13:30:15.195Z,27.81
2022-12-15T13:33:18.429Z,28.09
2022-12-15T13:35:46.786Z,28.26
2022-12-15T13:38:19.164Z,28.71
2022-12-15T13:40:47.412Z,28.85
2022-12-15T13:43:27.692Z,28.75
2022-12-15T13:46:00.294Z,28.73
2022-12-15T13:48:53.869Z,28.61
2022-12-15T13:51:34.585Z,28.42
2022-12-15T13:54:24.275Z,28.31
2022-12-15T13:57:05.286Z,28.32
2022-12-15T13:59:33.416Z,28.17
2022-12-15T14:02:01.706Z,28.15
2022-12-15T14:04:30.068Z,27.95
2022-12-15T14:07:02.835Z,28.04
2022-12-15T14:09:36.453Z,28.00
2022-12-15T14:12:10.829Z,28.18
2022-12-15T14:14:48.991Z,28.12
2022-12-15T14:17:20.094Z,28.13
2022-12-15T14:19:51.261Z,28.10
2022-12-15T14:22:29.107Z,27.99
2022-12-15T14:25:24.887Z,28.15
2022-12-15T14:27:52.957Z,28.18
2022-12-15T14:30:28.366Z,28.20
2022-12-15T14:33:15.317Z,28.26
2022-12-15T14:35:55.377Z,28.31
2022-12-15T14:38:35.113Z,28.09
2022-12-15T14:41:05.130Z,28.25
2022-12-15T14:43:39.252Z,28.21
2022-12-15T14:46:17.161Z,28.33
2022-12-15T14:49:04.775Z,28.24
2022-12-15T14:51:53.061Z,28.10
2022-12-15T14:55:00.841Z,28.17
2022-12-15T14:57:45.179Z,28.14
2022-12-15T15:00:50.316Z,28.15
2022-12-15T15:03:03.658Z,32.20
2022-12-15T15:03:26.485Z,28.16
2022-12-15T15:06:02.663Z,28.26
2022-12-15T15:08:36.748Z,28.22
2022-12-15T15:11:23.467Z,28.10
2022-12-15T15:13:56.891Z,28.23
2022-12-15T15:16:25.585Z,28.31
2022-12-15T15:18:56.484Z,28.25
2022-12-15T15:21:29.811Z,28.28
2022-12-15T15:24:03.063Z,28.28
2022-12-15T15:26:32.074Z,28.27
2022-12-15T15:29:00.857Z,28.30
2022-12-15T15:31:41.475Z,28.34
2022-12-15T15:34:11.484Z,28.25
2022-12-15T15:36:40.022Z,28.15
2022-12-15T15:39:16.209Z,28.27
2022-12-15T15:41:44.887Z,28.39
2022-12-15T15:44:15.651Z,28.32
2022-12-15T15:46:51.452Z,28.22
2022-12-15T15:49:22.084Z,28.32
2022-12-15T15:51:50.550Z,28.43
2022-12-15T15:54:23.683Z,28.57
2022-12-15T15:56:51.827Z,28.77
2022-12-15T15:59:21.606Z,29.00
2022-12-15T16:01:55.775Z,29.05
2022-12-15T16:04:25.329Z,29.21
2022-12-15T16:06:54.207Z,29.35
2022-12-15T16:09:24.795Z,29.67
2022-12-15T16:11:53.675Z,29.83
2022-12-15T16:14:21.746Z,29.90
2022-12-15T16:16:50.249Z,29.79
2022-12-15T16:19:18.506Z,29.92
2022-12-15T16:21:50.980Z,30.05
2022-12-15T16:24:19.478Z,30.11
2022-12-15T16:26:50.604Z,30.26
2022-12-15T16:29:21.927Z,30.54
2022-12-15T16:31:50.251Z,30.76
2022-12-15T16:34:19.379Z,31.03
2022-12-15T16:36:48.217Z,30.90
2022-12-15T16:39:34.869Z,30.84
2022-12-15T16:42:03.201Z,30.99
2022-12-15T16:44:31.388Z,30.85
2022-12-15T16:46:59.711Z,30.86
2022-12-15T16:49:33.849Z,30.75
2022-12-15T16:52:06.443Z,30.57
2022-12-15T16:54:34.829Z,30.59
2022-12-15T16:57:03.798Z,30.59
2022-12-15T16:59:34.003Z,30.61
2022-12-15T17:02:24.453Z,30.55
2022-12-15T17:04:55.218Z,30.87
2022-12-15T17:07:27.830Z,30.77
2022-12-15T17:09:56.786Z,30.70
2022-12-15T17:12:25.115Z,30.72
2022-12-15T17:14:53.327Z,30.72
2022-12-15T17:17:21.468Z,30.85
2022-12-15T17:20:32.684Z,30.74
2022-12-15T17:22:38.773Z,31.09
2022-12-15T17:25:20.188Z,31.07
2022-12-15T17:27:56.336Z,31.45
2022-12-15T17:30:24.403Z,31.55
2022-12-15T17:32:52.601Z,31.53
2022-12-15T17:35:21.486Z,31.30
2022-12-15T17:37:49.968Z,31.48
2022-12-15T17:40:23.334Z,31.12
2022-12-15T17:42:51.540Z,30.79
2022-12-15T17:45:24.649Z,30.62
2022-12-15T17:47:53.014Z,30.31
2022-12-15T17:50:21.184Z,30.28
2022-12-15T17:52:49.225Z,30.42
2022-12-15T17:55:25.097Z,30.21
2022-12-15T17:57:55.906Z,30.12
2022-12-15T18:00:28.533Z,30.24
2022-12-15T18:02:59.237Z,30.04
2022-12-15T18:05:30.552Z,30.04
2022-12-15T18:08:04.274Z,30.02
2022-12-15T18:10:37.387Z,29.98
2022-12-15T18:13:20.316Z,30.15
2022-12-15T18:15:49.359Z,30.21
2022-12-15T18:18:20.985Z,30.25
2022-12-15T18:20:52.494Z,30.33
2022-12-15T18:23:30.660Z,30.41
2022-12-15T18:26:02.916Z,30.48
2022-12-15T18:28:34.719Z,30.59
2022-12-15T18:31:15.076Z,30.70
2022-12-15T18:33:44.615Z,30.76
2022-12-15T18:36:14.043Z,30.69
2022-12-15T18:38:43.092Z,30.72
2022-12-15T18:41:18.161Z,30.91
2022-12-15T18:43:47.973Z,30.88
2022-12-15T18:46:17.394Z,31.24
2022-12-15T18:48:46.175Z,31.23
2022-12-15T18:51:22.424Z,31.57
2022-12-15T18:53:50.524Z,31.38
2022-12-15T18:56:21.700Z,31.43
2022-12-15T18:58:50.125Z,31.67
2022-12-15T19:01:18.760Z,31.98
2022-12-15T19:03:47.397Z,31.64
2022-12-15T19:06:36.054Z,31.60
2022-12-15T19:09:11.589Z,31.79
2022-12-15T19:11:40.075Z,32.18
2022-12-15T19:14:34.571Z,32.57
2022-12-15T19:17:21.358Z,32.53
2022-12-15T19:20:08.546Z,32.74
2022-12-15T19:22:36.695Z,32.71
2022-12-15T19:25:06.094Z,32.67
2022-12-15T19:27:34.263Z,32.60
2022-12-15T19:30:13.993Z,32.68
2022-12-15T19:32:42.476Z,32.62
2022-12-15T19:35:12.283Z,32.56
2022-12-15T19:37:44.623Z,32.57
2022-12-15T19:40:30.641Z,32.46
2022-12-15T19:43:00.291Z,32.53
2022-12-15T19:45:32.585Z,32.52
2022-12-15T19:48:00.903Z,32.37
2022-12-15T19:50:36.904Z,32.36
2022-12-15T19:53:14.351Z,32.33
2022-12-15T19:55:42.732Z,32.31
2022-12-15T19:58:32.207Z,32.29
2022-12-15T20:01:12.391Z,32.26
2022-12-15T20:03:42.712Z,32.32
2022-12-15T20:06:18.250Z,32.34
2022-12-15T20:08:50.610Z,32.29
2022-12-15T20:11:32.816Z,32.39
2022-12-15T20:14:02.209Z,32.34
2022-12-15T20:16:30.479Z,32.25
2022-12-15T20:18:59.145Z,32.25
2022-12-15T20:21:33.278Z,32.30
2022-12-15T20:24:08.933Z,32.25
2022-12-15T20:26:39.321Z,32.26
2022-12-15T20:29:25.490Z,32.23
2022-12-15T20:31:55.349Z,32.14
2022-12-15T20:34:24.277Z,32.11
2022-12-15T20:36:52.541Z,32.07
2022-12-15T20:39:29.282Z,32.14
2022-12-15T20:41:57.700Z,32.01
2022-12-15T20:44:25.849Z,31.98
2022-12-15T20:46:54.860Z,32.25
2022-12-15T20:49:24.468Z,31.95
2022-12-15T20:51:52.647Z,31.97
2022-12-15T20:54:22.881Z,31.95
2022-12-15T20:56:51.035Z,32.00
2022-12-15T20:59:19.927Z,32.02
2022-12-15T21:01:48.594Z,32.02
2022-12-15T21:04:28.192Z,32.09
2022-12-15T21:06:57.132Z,32.15
2022-12-15T21:09:25.288Z,32.14
2022-12-15T21:11:55.035Z,32.16
2022-12-15T21:14:24.339Z,32.17
2022-12-15T21:16:52.526Z,32.18
2022-12-15T21:19:21.992Z,32.09
2022-12-15T21:21:55.073Z,32.16
2022-12-15T21:24:27.689Z,32.14
2022-12-15T21:26:56.277Z,32.17
2022-12-15T21:29:28.233Z,32.27
2022-12-15T21:32:00.637Z,32.28
2022-12-15T21:34:29.386Z,32.20
2022-12-15T21:36:58.332Z,32.32
2022-12-15T21:39:31.127Z,32.31
2022-12-15T21:42:21.057Z,32.37
2022-12-15T21:44:49.941Z,32.32
2022-12-15T21:47:48.936Z,32.38
2022-12-15T21:50:18.902Z,32.37
2022-12-15T21:52:48.647Z,32.21
2022-12-15T21:55:26.126Z,32.24
2022-12-15T21:57:55.937Z,32.19
2022-12-15T22:00:25.393Z,32.32
2022-12-15T22:02:54.371Z,32.32
2022-12-15T22:05:30.543Z,32.22
2022-12-15T22:08:10.986Z,32.21
2022-12-15T22:10:39.841Z,32.12
2022-12-15T22:13:22.227Z,32.03
2022-12-15T22:15:54.680Z,32.18
2022-12-15T22:18:24.072Z,32.03
2022-12-15T22:20:52.601Z,32.06
2022-12-15T22:23:21.156Z,32.02
2022-12-15T22:25:54.699Z,31.99
2022-12-15T22:28:26.337Z,31.95
2022-12-15T22:30:56.701Z,32.03
2022-12-15T22:33:28.325Z,31.81
2022-12-15T22:35:56.413Z,31.99
2022-12-15T22:38:25.109Z,31.83
2022-12-15T22:40:56.777Z,31.85
2022-12-15T22:43:40.471Z,31.86
2022-12-15T22:46:14.395Z,31.93
2022-12-15T22:48:47.585Z,31.79
2022-12-15T22:51:17.713Z,31.86
2022-12-15T22:53:46.684Z,31.79
2022-12-15T22:56:28.385Z,31.67
2022-12-15T22:59:03.234Z,31.59
2022-12-15T23:01:31.917Z,31.56
2022-12-15T23:04:00.537Z,31.50
2022-12-15T23:06:30.583Z,31.44
2022-12-15T23:08:59.022Z,31.46
2022-12-15T23:11:39.676Z,31.44
2022-12-15T23:14:12.774Z,31.40
2022-12-15T23:16:42.182Z,31.32
2022-12-15T23:19:24.194Z,31.48
2022-12-15T23:21:52.671Z,31.58
2022-12-15T23:24:21.256Z,31.59
2022-12-15T23:26:49.621Z,31.65
2022-12-15T23:29:18.718Z,31.64
2022-12-15T23:31:47.584Z,31.66
2022-12-15T23:34:16.604Z,31.69
2022-12-15T23:36:44.881Z,31.68
2022-12-15T23:39:13.155Z,31.72
2022-12-15T23:41:42.168Z,31.70
2022-12-15T23:44:12.474Z,31.80
2022-12-15T23:46:40.904Z,31.73
2022-12-15T23:49:09.334Z,31.68
2022-12-15T23:51:37.704Z,31.73
2022-12-15T23:54:06.811Z,31.74
2022-12-15T23:56:34.847Z,31.74
2022-12-15T23:59:02.952Z,31.73
